Emerald Airport

Airport
ICAO code: 
YEML
IATA Code: 
EMD
Summary
ICAO Region: 
APAC
Territory: 
Location: 
Emerald, Queensland
Serving: 
Emerald
Elevation: 
624 ft
Coordinates: 
Aerial View: 
23° 34' 10.745" S, 148° 10' 41.471" E
Airport WX: 
Tropical Revolving Storm
Metar
Observation
YEML 281000Z AUTO 05012KT 9999 // NCD 26/21 Q1012
Station
Emerald Airport
Date/Time
2021-11-28 10:00:00
Wind direction
50°
Wind speed
12 kts
Lowest cloud amount
no clouds detected
Temperature
26°C
Dew point
21°C
Humidity
74%
QNH
1012 hPa
Weather condition
n/a

Emerald Airport is an airport serving Emerald, a town located in the Central Highlands district of Queensland, Australia. It is located 6 km south of the Emerald town centre.

Climatology

Humid “subtropical” climate (Köppen climate classification Cwa) - characterized by hot, humid summers and cool winters. Winter months are drier than the summer months. Winter rainfall (and sometimes snowfall) is associated with large storms that the westerlies steer from west to east. Most summer rainfall occurs during thunderstorms and the area is subject to tropical revolving storms.

Runways

Designator Length Width Surface Rops
15/33 926 18 GVL Yes/Yes
6/24 1900 30 ASP Yes/Yes
Airport map: 
Aerial View: 

SKYbrary Partners:

Safety knowledge contributed by: